• Join FlightAware (Why Join?)
  • Login
  • US Flag 
11:39PM EST


 

Airport Tracker/Info


-or-


 

Live Flight TrackerFlight Track Log ✈ DAL268 ✈ 20-Oct-2013 ✈ KSFO - KJFK

Flight Track Log - Related Links

Times and Time Zones

All times are in EDT time to prevent confusion due to time zone crossing. See the DAL268 flight status page for this flight to view local times or setup timezone preferences in your user account.

Time Position Orientation Groundspeed Altitude Reporting Facility
EDT Latitude Longitude Course Direction KTS MPH feet Rate Location/Type
02:34PM 37.6331 -122.3630 31° Northeast 171 197 700  Level FlightAware ADS-B
02:35PM 37.6389 -122.3570 39° Northeast 175 201 1,100 2,280 Climbing FlightAware ADS-B
02:35PM 37.6414 -122.3540 44° Northeast 177 204 1,200 1,800 Climbing FlightAware ADS-B
02:35PM 37.6498 -122.3420 49° Northeast 189 217 1,700 1,920 Climbing FlightAware ADS-B
02:35PM 37.6595 -122.3280 49° Northeast 212 244 2,200 1,740 Climbing FlightAware ADS-B
02:35PM 37.6704 -122.3130 47° Northeast 234 269 2,600 1,320 Climbing FlightAware ADS-B
02:36PM 37.6819 -122.2970 48° Northeast 259 298 2,900 2,100 Climbing FlightAware ADS-B
02:36PM 37.6946 -122.2780 50° Northeast 266 306 3,700 3,060 Climbing FlightAware ADS-B
02:36PM 37.7071 -122.2600 49° Northeast 270 311 4,500 3,180 Climbing FlightAware ADS-B
02:36PM 37.7211 -122.2410 47° Northeast 272 313 5,400 3,060 Climbing FlightAware ADS-B
02:37PM 37.7367 -122.2180 49° Northeast 275 316 6,300 2,880 Climbing FlightAware ADS-B
02:37PM 37.7541 -122.1930 49° Northeast 282 325 7,300 2,820 Climbing FlightAware ADS-B
02:37PM 37.7692 -122.1710 49° Northeast 291 335 8,100 3,060 Climbing FlightAware ADS-B
02:38PM 37.7847 -122.1480 50° Northeast 288 331 9,100 3,120 Climbing FlightAware ADS-B
02:38PM 37.7994 -122.1280 47° Northeast 288 331 9,900 2,280 Climbing FlightAware ADS-B
02:38PM 37.8277 -122.0880 48° Northeast 310 357 10,900 1,740 Climbing FlightAware ADS-B
02:39PM 37.8582 -122.0460 47° Northeast 336 387 11,700 1,440 Climbing FlightAware ADS-B
02:39PM 37.8920 -121.9990 48° Northeast 367 422 12,400 1,500 Climbing FlightAware ADS-B
02:40PM 37.9017 -121.9820 54° Northeast 372 428 12,700 1,740 Climbing FlightAware ADS-B
02:40PM 37.9087 -121.9680 58° Northeast 376 433 12,900 1,980 Climbing FlightAware ADS-B
02:40PM 37.9162 -121.9470 66° East 379 436 13,300 2,400 Climbing FlightAware ADS-B
02:40PM 37.9221 -121.9220 73° East 383 441 13,800 2,160 Climbing FlightAware ADS-B
02:41PM 37.9350 -121.8470 78° East 391 450 15,000 2,160 Climbing FlightAware
02:41PM 37.9483 -121.7690 78° East 394 453 16,300 2,160 Climbing FlightAware ADS-B
02:42PM 37.9599 -121.6990 78° East 406 467 17,400 2,160 Climbing FlightAware ADS-B
02:42PM 37.9716 -121.6290 78° East 413 475 18,500 2,040 Climbing FlightAware ADS-B
02:43PM 37.9842 -121.5530 78° East 421 484 19,500 1,800 Climbing FlightAware ADS-B
02:43PM 37.9970 -121.4770 78° East 427 491 20,400 1,800 Climbing FlightAware ADS-B
02:44PM 38.0122 -121.3850 78° East 433 498 21,600 1,860 Climbing FlightAware ADS-B
02:44PM 38.0260 -121.3020 78° East 439 505 22,600 1,800 Climbing FlightAware ADS-B
02:45PM 38.0408 -121.2110 78° East 443 510 23,700 1,620 Climbing FlightAware ADS-B
02:46PM 38.0589 -121.1000 78° East 450 518 24,800 1,440 Climbing FlightAware ADS-B
02:46PM 38.0770 -121.0000 77° East 456 525 25,700 1,440 Climbing FlightAware
02:47PM 38.0980 -120.9070 74° East 460 529 26,600 1,320 Climbing FlightAware
02:48PM 38.1170 -120.8260 73° East 466 536 27,200 1,200 Climbing FlightAware
02:48PM 38.1410 -120.7300 72° East 469 540 28,000 1,320 Climbing FlightAware
02:49PM 38.1660 -120.6250 73° East 471 542 28,900 1,500 Climbing FlightAware
02:49PM 38.1870 -120.5370 73° East 465 535 29,900 1,860 Climbing FlightAware
02:49PM 38.1888 -120.5288 74° East 466 536 30,000 1,560 Climbing FlightAware ADS-B (KAHC)
02:50PM 38.2080 -120.4500 73° East 462 532 30,800 1,380 Climbing FlightAware
02:51PM 38.2290 -120.3590 74° East 461 531 31,600 1,320 Climbing FlightAware
02:51PM 38.2500 -120.2710 73° East 462 532 32,300 1,020 Climbing FlightAware
02:52PM 38.2684 -120.1920 73° East 465 535 32,800 1,020 Climbing FlightAware ADS-B (KAHC)
02:52PM 38.2880 -120.1060 74° East 465 535 33,400 1,200 Climbing FlightAware
02:52PM 38.2907 -120.0970 69° East 465 535 33,700 1,380 Climbing FlightAware ADS-B (KAHC)
02:53PM 38.3280 -119.9360 73° East 457 526 34,900 1,260 Climbing FlightAware
02:54PM 38.3500 -119.8430 73° East 454 522 35,600 1,020 Climbing FlightAware
02:54PM 38.3720 -119.7470 74° East 453 521 36,200 900 Climbing FlightAware
02:55PM 38.3785 -119.7178 74° East 453 521 36,700 720 Climbing FlightAware ADS-B (KAHC)
02:56PM 38.4084 -119.5874 74° East 453 521 37,000 300 Climbing FlightAware ADS-B (KAHC)
02:56PM 38.4264 -119.5088 74° East 454 522 37,000  Level FlightAware ADS-B (KAHC)
02:57PM 38.4470 -119.4177 74° East 453 521 37,000  Level FlightAware ADS-B (KAHC)
02:57PM 38.4645 -119.3408 74° East 452 520 37,000  Level FlightAware ADS-B (KAHC)
02:58PM 38.4886 -119.2340 74° East 450 518 37,000  Level FlightAware ADS-B (KAHC)
02:58PM 38.5035 -119.1560 76° East 452 520 37,000  Level FlightAware ADS-B (KAHC)
02:59PM 38.5132 -119.0759 81° East 453 521 37,000  Level FlightAware ADS-B (KAHC)
02:59PM 38.5220 -118.9818 83° East 454 522 37,000  Level FlightAware ADS-B (KAHC)
03:00PM 38.5203 -118.9008 91° East 456 525 37,000  Level FlightAware ADS-B (KAHC)
03:00PM 38.5160 -118.8140 94° East 455 524 37,000  Level FlightAware
03:01PM 38.5110 -118.7130 94° East 455 524 37,000  Level FlightAware
03:02PM 38.5070 -118.6190 93° East 455 524 37,000  Level FlightAware
03:02PM 38.5010 -118.4970 94° East 455 524 37,000  Level FlightAware
03:03PM 38.4960 -118.4040 94° East 455 524 37,000  Level FlightAware
03:04PM 38.4920 -118.3110 93° East 457 526 37,000  Level FlightAware
03:04PM 38.4870 -118.2150 94° East 456 525 37,000  Level FlightAware
03:05PM 38.4900 -118.1260 88° East 452 520 37,000  Level FlightAware
03:05PM 38.5040 -118.0290 80° East 451 519 37,000  Level FlightAware
03:06PM 38.5200 -117.9330 78° East 450 518 37,000  Level FlightAware
03:06PM 38.5300 -117.8710 78° East 450 518 37,000  Level FlightAware
03:07PM 38.5440 -117.7890 78° East 450 518 37,000  Level FlightAware
03:08PM 38.5570 -117.7090 78° East 450 518 37,000  Level FlightAware
03:08PM 38.5660 -117.6540 78° East 450 518 37,000  Level FlightAware
03:09PM 38.5790 -117.5790 77° East 450 518 37,000  Level FlightAware
03:09PM 38.5920 -117.4990 78° East 450 518 37,000  Level FlightAware
03:10PM 38.6060 -117.4170 78° East 450 518 37,000  Level FlightAware
03:10PM 38.6180 -117.3420 78° East 450 518 37,000  Level FlightAware
03:11PM 38.6330 -117.2530 78° East 450 518 37,000  Level FlightAware
03:12PM 38.6470 -117.1710 78° East 450 518 37,000  Level FlightAware
03:12PM 38.6600 -117.0910 78° East 450 518 37,000  Level FlightAware
03:13PM 38.6720 -117.0160 78° East 450 518 37,000  Level FlightAware
03:13PM 38.6860 -116.9360 77° East 450 518 37,000  Level FlightAware
03:14PM 38.6990 -116.8560 78° East 450 518 37,000  Level FlightAware
03:15PM 38.7120 -116.7760 78° East 450 518 37,000  Level FlightAware
03:15PM 38.7250 -116.6990 78° East 450 518 37,000  Level FlightAware
03:16PM 38.7390 -116.6140 78° East 450 518 37,000  Level FlightAware
03:17PM 38.7928 -116.2422 78° East 455 524 37,000  Level Salt Lake Center
03:18PM 38.8164 -116.0811 79° East 458 527 37,000  Level Salt Lake Center
03:19PM 38.8419 -115.9214 78° East 457 526 37,000  Level Salt Lake Center
03:20PM 38.8653 -115.7608 79° East 458 527 37,000  Level Salt Lake Center
03:21PM 38.8889 -115.6008 79° East 457 526 37,000  Level Salt Lake Center
03:22PM 38.9178 -115.4081 79° East 458 527 37,000  Level Salt Lake Center
03:23PM 38.9375 -115.2714 79° East 456 525 37,000  Level Salt Lake Center
03:24PM 38.9667 -115.0753 79° East 463 533 37,000  Level Salt Lake Center
03:25PM 38.9897 -114.9133 80° East 462 532 37,000  Level Salt Lake Center
03:31PM 39.1259 -113.9110 80° East 471 542 37,000  Level FlightAware ADS-B
03:32PM 39.1367 -113.8287 80° East 472 543 37,000  Level FlightAware ADS-B
03:32PM 39.1487 -113.7370 80° East 472 543 37,000  Level FlightAware ADS-B
03:33PM 39.1594 -113.6545 80° East 470 541 37,000  Level FlightAware ADS-B
03:33PM 39.1696 -113.5756 81° East 470 541 37,000  Level FlightAware ADS-B
03:34PM 39.1820 -113.4790 81° East 471 542 37,000  Level FlightAware ADS-B
03:34PM 39.1924 -113.3979 81° East 470 541 37,000  Level FlightAware ADS-B
03:35PM 39.2070 -113.2821 81° East 472 543 37,000  Level FlightAware ADS-B
03:35PM 39.2191 -113.1859 81° East 472 543 37,000  Level FlightAware ADS-B
03:36PM 39.2294 -113.1033 81° East 472 543 37,000  Level FlightAware ADS-B
03:36PM 39.2365 -113.0460 81° East 473 544 37,000  Level FlightAware ADS-B
03:37PM 39.2416 -113.0048 81° East 473 544 37,000  Level FlightAware ADS-B
03:37PM 39.2469 -112.9620 81° East 474 545 37,000  Level FlightAware ADS-B
03:37PM 39.2527 -112.9147 81° East 474 545 37,000  Level FlightAware ADS-B
03:37PM 39.2573 -112.8780 81° East 474 545 37,000  Level FlightAware ADS-B
03:38PM 39.2628 -112.8322 81° East 475 547 37,000  Level FlightAware ADS-B
03:38PM 39.2690 -112.7810 81° East 476 548 37,000  Level FlightAware ADS-B
03:38PM 39.2727 -112.7506 81° East 476 548 37,000  Level FlightAware ADS-B
03:39PM 39.2820 -112.6740 81° East 477 549 37,000  Level FlightAware ADS-B
03:39PM 39.2835 -112.6613 81° East 477 549 37,000  Level FlightAware ADS-B
03:39PM 39.2925 -112.5870 81° East 476 548 37,000  Level FlightAware ADS-B
03:39PM 39.2947 -112.5684 82° East 476 548 37,000  Level FlightAware ADS-B
03:39PM 39.2986 -112.5260 83° East 478 550 37,000  Level FlightAware ADS-B
03:40PM 39.3009 -112.4744 87° East 483 556 37,000  Level FlightAware ADS-B
03:40PM 39.3007 -112.4510 91° East 485 558 37,000  Level FlightAware ADS-B
03:40PM 39.2971 -112.3764 94° East 487 560 37,000  Level FlightAware ADS-B
03:40PM 39.2961 -112.3590 94° East 487 560 37,000  Level FlightAware ADS-B
03:41PM 39.2926 -112.3027 95° East 488 562 37,000  Level FlightAware ADS-B
03:41PM 39.2907 -112.2710 95° East 486 559 37,000  Level FlightAware ADS-B
03:41PM 39.2867 -112.2021 94° East 486 559 37,000  Level FlightAware ADS-B
03:41PM 39.2856 -112.1830 94° East 485 558 37,000  Level FlightAware ADS-B
03:42PM 39.2813 -112.1054 94° East 484 557 37,000  Level FlightAware ADS-B
03:42PM 39.2805 -112.0910 94° East 484 557 37,000  Level FlightAware ADS-B
03:42PM 39.2763 -112.0099 94° East 482 555 37,000  Level FlightAware ADS-B
03:42PM 39.2759 -112.0040 95° East 482 555 37,000  Level FlightAware ADS-B
03:43PM 39.2716 -111.9210 94° East 482 555 37,000  Level FlightAware ADS-B
03:43PM 39.2714 -111.9160 93° East 482 555 37,000  Level FlightAware ADS-B
03:43PM 39.2670 -111.8331 94° East 482 555 37,000  Level FlightAware ADS-B
03:43PM 39.2666 -111.8280 95° East 482 555 37,000  Level FlightAware ADS-B
03:44PM 39.2618 -111.7380 94° East 481 554 37,000  Level FlightAware ADS-B
03:44PM 39.2605 -111.7140 94° East 481 554 37,000  Level FlightAware ADS-B
03:45PM 39.2569 -111.6505 94° East 481 554 37,000  Level FlightAware ADS-B
03:45PM 39.2556 -111.6260 94° East 481 554 37,000  Level FlightAware ADS-B
03:45PM 39.2522 -111.5668 94° East 482 555 37,000  Level FlightAware ADS-B
03:45PM 39.2496 -111.5210 94° East 482 555 37,000  Level FlightAware ADS-B
03:46PM 39.2442 -111.4270 94° East 484 557 37,000  Level FlightAware ADS-B
03:46PM 39.2390 -111.3410 94° East 485 558 37,000  Level FlightAware ADS-B
03:47PM 39.2337 -111.2520 94° East 486 559 37,000  Level FlightAware ADS-B
03:47PM 39.2327 -111.2358 94° East 488 562 37,000  Level FlightAware ADS-B
03:47PM 39.2284 -111.1640 94° East 487 560 37,000  Level FlightAware ADS-B
03:48PM 39.2201 -111.0290 94° East 487 560 37,000  Level FlightAware ADS-B
03:49PM 39.2140 -110.9310 95° East 486 559 37,000  Level FlightAware
03:50PM 39.2070 -110.8120 94° East 486 559 37,000  Level FlightAware
03:50PM 39.1980 -110.6820 95° East 487 560 37,000  Level FlightAware
03:50PM 39.2105 -110.8760 275° West 490 564 37,000  Level FlightAware ADS-B
03:51PM 39.1858 -110.4950 95° East 490 564 37,000  Level FlightAware ADS-B
03:52PM 39.1799 -110.4076 95° East 490 564 37,000  Level FlightAware ADS-B
03:52PM 39.1747 -110.3308 95° East 490 564 37,000  Level FlightAware ADS-B
03:53PM 39.1661 -110.2059 95° East 490 564 37,000  Level FlightAware ADS-B
03:54PM 39.1540 -110.0390 95° East 491 565 37,000  Level FlightAware
03:54PM 39.1470 -109.9280 95° East 494 568 37,000  Level FlightAware
03:55PM 39.1390 -109.8220 96° East 494 568 37,000  Level FlightAware
03:55PM 39.1339 -109.7537 95° East 494 568 37,000  Level FlightAware ADS-B
03:56PM 39.1274 -109.6643 95° East 495 570 37,000  Level FlightAware ADS-B
03:56PM 39.1209 -109.5775 95° East 496 571 37,000  Level FlightAware ADS-B
03:57PM 39.1187 -109.5480 96° East 496 571 37,000  Level FlightAware ADS-B (KANK)
03:57PM 39.1118 -109.4559 95° East 495 570 37,000  Level FlightAware ADS-B
03:58PM 39.1053 -109.3714 96° East 495 570 37,000  Level FlightAware ADS-B
03:58PM 39.0978 -109.2738 96° East 496 571 37,000  Level FlightAware ADS-B
03:59PM 39.0854 -109.1147 96° East 499 574 37,000  Level FlightAware ADS-B
04:00PM 39.0784 -109.0262 96° East 499 574 37,000  Level FlightAware ADS-B
04:00PM 39.0713 -108.9371 96° East 500 575 37,000  Level FlightAware ADS-B
04:01PM 39.0643 -108.8499 96° East 499 574 37,000  Level FlightAware ADS-B
04:01PM 39.0591 -108.7589 94° East 497 572 37,000  Level FlightAware ADS-B
04:02PM 39.0562 -108.6661 92° East 495 570 37,000  Level FlightAware ADS-B
04:02PM 39.0538 -108.5739 92° East 495 570 37,000  Level FlightAware ADS-B
04:03PM 39.0514 -108.4810 92° East 496 571 37,000  Level FlightAware ADS-B
04:03PM 39.0491 -108.3937 92° East 497 572 37,000  Level FlightAware ADS-B (KANK)
04:04PM 39.0464 -108.2985 92° East 498 573 37,000  Level FlightAware ADS-B
04:04PM 39.0435 -108.1971 92° East 498 573 37,000  Level FlightAware ADS-B
04:05PM 39.0409 -108.1105 92° East 498 573 37,000  Level FlightAware ADS-B
04:05PM 39.0377 -108.0086 92° East 498 573 37,000  Level FlightAware ADS-B
04:06PM 39.0346 -107.9096 92° East 498 573 37,000  Level FlightAware ADS-B
04:07PM 39.0310 -107.7970 92° East 499 574 37,000  Level FlightAware
04:07PM 39.0270 -107.6840 93° East 499 574 37,000  Level FlightAware
04:08PM 39.0237 -107.5850 92° East 502 578 37,000  Level FlightAware ADS-B
04:08PM 39.0205 -107.4922 93° East 502 578 37,000  Level FlightAware ADS-B
04:09PM 39.0173 -107.4058 93° East 501 577 37,000  Level FlightAware ADS-B
04:09PM 39.0139 -107.3130 93° East 502 578 37,000  Level FlightAware ADS-B
04:10PM 39.0104 -107.2206 93° East 502 578 37,000  Level FlightAware ADS-B
04:10PM 39.0058 -107.1002 93° East 501 577 37,000  Level FlightAware ADS-B
04:11PM 39.0023 -107.0119 93° East 502 578 37,000  Level FlightAware ADS-B
04:11PM 38.9982 -106.9118 93° East 503 579 37,000  Level FlightAware ADS-B
04:12PM 38.9946 -106.8219 93° East 504 580 37,000  Level FlightAware ADS-B
04:13PM 38.9909 -106.7343 93° East 504 580 37,000  Level FlightAware ADS-B
04:13PM 38.9867 -106.6355 93° East 505 581 37,000  Level FlightAware ADS-B
04:14PM 38.9827 -106.5435 93° East 505 581 37,000  Level FlightAware ADS-B
04:14PM 38.9781 -106.4389 93° East 506 582 37,000  Level FlightAware ADS-B
04:15PM 38.9739 -106.3459 93° East 508 585 37,000  Level FlightAware ADS-B
04:15PM 38.9698 -106.2569 93° East 509 586 37,000  Level FlightAware ADS-B
04:16PM 38.9655 -106.1658 93° East 508 585 37,000  Level FlightAware ADS-B
04:16PM 38.9610 -106.0723 93° East 507 583 37,000  Level FlightAware ADS-B
04:17PM 38.9560 -105.9690 94° East 510 587 37,000  Level FlightAware
04:17PM 38.9510 -105.8660 94° East 510 587 37,000  Level FlightAware
04:18PM 38.9460 -105.7640 94° East 513 590 37,000  Level FlightAware
04:18PM 38.9410 -105.6610 94° East 513 590 37,000  Level FlightAware
04:19PM 38.9372 -105.5953 94° East 515 593 37,000  Level FlightAware ADS-B (KANK)
04:20PM 38.9300 -105.4510 94° East 514 592 37,000  Level FlightAware
04:20PM 38.9274 -105.4107 95° East 514 592 37,000  Level FlightAware ADS-B (KANK)
04:21PM 38.9180 -105.2290 94° East 512 589 37,000  Level FlightAware
04:21PM 38.9120 -105.1250 94° East 513 590 37,000  Level FlightAware
04:22PM 38.9060 -105.0260 94° East 512 589 37,000  Level FlightAware
04:22PM 38.9058 -105.0016 91° East 512 589 37,000  Level FlightAware ADS-B (KEIK)
04:23PM 38.9088 -104.8524 88° East 512 589 37,000  Level FlightAware ADS-B (KEIK)
04:23PM 38.9107 -104.7634 88° East 513 590 37,000  Level FlightAware ADS-B (KEIK)
04:24PM 38.9124 -104.6304 89° East 515 593 37,000  Level FlightAware ADS-B (KANK)
04:25PM 38.9130 -104.4810 90° East 515 593 37,000  Level FlightAware
04:26PM 38.9140 -104.3730 89° East 515 593 37,000  Level FlightAware
04:26PM 38.9138 -104.3525 91° East 515 593 37,000  Level FlightAware ADS-B (KEIK)
04:26PM 38.9142 -104.1997 90° East 515 593 37,000  Level FlightAware ADS-B (KEIK)
04:27PM 38.9140 -104.0530 90° East 515 593 37,000  Level FlightAware
04:28PM 38.9150 -103.9450 89° East 516 594 37,000  Level FlightAware
04:28PM 38.9150 -103.8470 90° East 515 593 37,000  Level FlightAware
04:29PM 38.9150 -103.7400 90° East 516 594 37,000  Level FlightAware
04:29PM 38.9148 -103.6881 90° East 516 594 37,000  Level FlightAware ADS-B (KANK)
04:30PM 38.9151 -103.4839 90° East 517 595 37,000  Level FlightAware ADS-B (KANK)
04:31PM 38.9153 -103.3693 90° East 518 596 37,000  Level FlightAware ADS-B (KANK)
04:31PM 38.9150 -103.2770 90° East 519 597 37,000  Level FlightAware
04:32PM 38.9150 -103.1740 90° East 519 597 37,000  Level FlightAware
04:33PM 38.9150 -103.0800 90° East 518 596 37,000  Level FlightAware
04:33PM 38.9150 -102.9630 90° East 519 597 37,000  Level FlightAware
04:34PM 38.9150 -102.8610 90° East 520 598 37,000  Level FlightAware
04:34PM 38.9140 -102.7380 91° East 520 598 37,000  Level FlightAware
04:35PM 38.9140 -102.6490 90° East 520 598 37,000  Level FlightAware
04:35PM 38.9153 -103.0710 270° West 520 598 37,000  Level FlightAware ADS-B (KANK)
04:36PM 38.9130 -102.4330 90° East 520 598 37,000  Level FlightAware
04:37PM 38.9120 -102.3150 91° East 520 598 37,000  Level FlightAware
04:37PM 38.9110 -102.2060 91° East 520 598 37,000  Level FlightAware
04:38PM 38.9100 -102.1010 91° East 520 598 37,000  Level FlightAware
04:38PM 38.9090 -101.9890 91° East 519 597 37,000  Level FlightAware
04:39PM 38.9070 -101.8790 91° East 518 596 37,000  Level FlightAware
04:40PM 38.9060 -101.7810 91° East 518 596 37,000  Level FlightAware
04:40PM 38.9050 -101.6720 91° East 517 595 37,000  Level FlightAware
04:41PM 38.9030 -101.5630 91° East 517 595 37,000  Level FlightAware
04:41PM 38.9020 -101.4530 91° East 516 594 37,000  Level FlightAware
04:42PM 38.9000 -101.3480 91° East 516 594 37,000  Level FlightAware
04:43PM 38.8980 -101.2460 91° East 516 594 37,000  Level FlightAware
04:43PM 38.8960 -101.1380 91° East 517 595 37,000  Level FlightAware
04:44PM 38.8940 -101.0420 92° East 518 596 37,000  Level FlightAware
04:44PM 38.8920 -100.9240 91° East 518 596 37,000  Level FlightAware
04:45PM 38.8900 -100.8070 91° East 519 597 37,000  Level FlightAware
04:45PM 38.8880 -100.7090 91° East 519 597 37,000  Level FlightAware
04:46PM 38.8850 -100.5940 92° East 520 598 37,000  Level FlightAware
04:47PM 38.8830 -100.4940 91° East 520 598 37,000  Level FlightAware
04:47PM 38.8800 -100.3800 92° East 521 600 37,000  Level FlightAware
04:48PM 38.8770 -100.2770 92° East 522 601 37,000  Level FlightAware
04:48PM 38.8750 -100.1760 91° East 522 601 37,000  Level FlightAware
04:49PM 38.8730 -100.0540 91° East 523 602 37,000  Level FlightAware
04:50PM 38.8710 -99.9530 91° East 523 602 37,000  Level FlightAware
04:50PM 38.8700 -99.8500 91° East 523 602 37,000  Level FlightAware
04:51PM 38.8690 -99.7610 91° East 523 602 37,000  Level FlightAware
04:52PM 38.8670 -99.6600 91° East 523 602 37,000  Level FlightAware
04:52PM 38.8660 -99.5630 91° East 523 602 37,000  Level FlightAware
04:53PM 38.8650 -99.4650 91° East 523 602 37,000  Level FlightAware
04:53PM 38.8640 -99.3750 91° East 523 602 37,000  Level FlightAware
04:54PM 38.8620 -99.2800 92° East 523 602 37,000  Level FlightAware
04:55PM 38.8610 -99.1820 91° East 523 602 37,000  Level FlightAware
04:55PM 38.8600 -99.0850 91° East 523 602 37,000  Level FlightAware
04:56PM 38.8580 -98.9870 91° East 523 602 37,000  Level FlightAware
04:57PM 38.9220 -98.6280 77° East 528 608 37,000  Level FlightAware
04:57PM 38.9330 -98.5180 83° East 529 609 37,000  Level FlightAware
04:58PM 38.9480 -98.3870 82° East 530 610 37,000  Level FlightAware
04:59PM 38.9610 -98.2670 82° East 531 611 37,000  Level FlightAware
04:59PM 38.9720 -98.1670 82° East 531 611 37,000  Level FlightAware
05:00PM 38.9850 -98.0390 83° East 532 612 37,000  Level FlightAware
05:00PM 38.9960 -97.9400 82° East 532 612 37,000  Level FlightAware
05:01PM 39.0080 -97.8220 83° East 532 612 37,000  Level FlightAware
05:02PM 39.0190 -97.7100 83° East 532 612 37,000  Level FlightAware
05:02PM 39.0300 -97.6090 82° East 532 612 37,000  Level FlightAware
05:03PM 39.0410 -97.4960 83° East 532 612 37,000  Level FlightAware
05:03PM 39.0487 -97.4197 83° East 532 612 37,000  Level FlightAware ADS-B
05:04PM 39.0650 -97.2600 82° East 533 613 37,000  Level FlightAware
05:04PM 39.0730 -97.1850 82° East 533 613 37,000  Level FlightAware
05:05PM 39.0792 -97.1099 84° East 534 615 37,000  Level FlightAware ADS-B
05:05PM 39.0888 -97.0109 83° East 534 615 37,000  Level FlightAware ADS-B
05:06PM 39.1050 -96.8410 83° East 532 612 37,000  Level FlightAware
05:07PM 39.1170 -96.7170 83° East 532 612 37,000  Level FlightAware
05:07PM 39.1260 -96.6220 83° East 532 612 37,000  Level FlightAware
05:08PM 39.1370 -96.5040 83° East 532 612 37,000  Level FlightAware
05:09PM 39.1480 -96.3840 83° East 531 611 37,000  Level FlightAware
05:09PM 39.1550 -96.3010 84° East 531 611 37,000  Level FlightAware
05:10PM 39.1660 -96.1740 84° East 532 612 37,000  Level FlightAware
05:10PM 39.1730 -96.1010 83° East 532 612 37,000  Level FlightAware
05:11PM 39.1830 -96.0040 82° East 532 612 37,000  Level FlightAware
05:11PM 39.1960 -95.8370 84° East 533 613 37,000  Level FlightAware
05:12PM 39.2060 -95.7210 84° East 534 615 37,000  Level FlightAware
05:13PM 39.2150 -95.6170 84° East 535 616 37,000  Level FlightAware
05:13PM 39.2230 -95.5230 84° East 536 617 37,000  Level FlightAware
05:14PM 39.2330 -95.3990 84° East 535 616 37,000  Level FlightAware
05:14PM 39.2420 -95.2820 84° East 535 616 37,000  Level FlightAware
05:15PM 39.2520 -95.1670 84° East 536 617 37,000  Level FlightAware
05:15PM 39.2562 -95.1105 84° East 537 618 37,000  Level FlightAware ADS-B
05:16PM 39.2690 -94.9420 84° East 537 618 37,000  Level FlightAware
05:17PM 39.2771 -94.8426 84° East 538 619 37,000  Level FlightAware ADS-B
05:17PM 39.2830 -94.7230 86° East 537 618 37,000  Level FlightAware
05:18PM 39.2810 -94.6210 91° East 536 617 37,000  Level FlightAware
05:18PM 39.2784 -94.5570 93° East 537 618 37,000  Level FlightAware ADS-B
05:19PM 39.2710 -94.3940 93° East 536 617 37,000  Level FlightAware
05:19PM 39.2753 -94.4827 274° West 537 618 37,000  Level FlightAware ADS-B
05:20PM 39.2600 -94.1420 93° East 537 618 37,000  Level FlightAware
05:21PM 39.2550 -94.0310 93° East 536 617 37,000  Level FlightAware
05:22PM 39.2500 -93.9140 93° East 535 616 37,000  Level FlightAware
05:22PM 39.2440 -93.8020 94° East 535 616 37,000  Level FlightAware
05:23PM 39.2380 -93.6710 93° East 535 616 37,000  Level FlightAware
05:23PM 39.2330 -93.5610 93° East 535 616 37,000  Level FlightAware
05:24PM 39.2270 -93.4450 94° East 536 617 37,000  Level FlightAware
05:25PM 39.2220 -93.3490 94° East 536 617 37,000  Level FlightAware
05:25PM 39.2150 -93.2260 94° East 536 617 37,000  Level FlightAware
05:26PM 39.2110 -93.1360 93° East 536 617 37,000  Level FlightAware
05:26PM 39.2040 -93.0090 94° East 535 616 37,000  Level FlightAware
05:27PM 39.1980 -92.8930 94° East 535 616 37,000  Level FlightAware
05:28PM 39.1910 -92.7840 95° East 534 615 37,000  Level FlightAware
05:28PM 39.1850 -92.6700 94° East 534 615 37,000  Level FlightAware
05:29PM 39.1760 -92.5130 94° East 534 615 37,000  Level FlightAware
05:29PM 39.1690 -92.4080 95° East 535 616 37,000  Level FlightAware
05:30PM 39.1630 -92.2940 94° East 534 615 37,000  Level FlightAware
05:31PM 39.1560 -92.1830 95° East 534 615 37,000  Level FlightAware
05:31PM 39.1490 -92.0810 95° East 534 615 37,000  Level FlightAware
05:32PM 39.1420 -91.9570 94° East 535 616 37,000  Level FlightAware
05:32PM 39.1350 -91.8540 95° East 535 616 37,000  Level FlightAware
05:33PM 39.1280 -91.7450 95° East 536 617 37,000  Level FlightAware
05:34PM 39.1200 -91.6280 95° East 536 617 37,000  Level FlightAware
05:34PM 39.1130 -91.5220 95° East 538 619 37,000  Level FlightAware
05:35PM 39.1050 -91.4070 95° East 538 619 37,000  Level FlightAware
05:35PM 39.0980 -91.3040 95° East 538 619 37,000  Level FlightAware
05:36PM 39.0890 -91.1800 95° East 537 618 37,000  Level FlightAware
05:37PM 39.0810 -91.0670 95° East 537 618 37,000  Level FlightAware
05:37PM 39.0740 -90.9650 95° East 537 618 37,000  Level FlightAware
05:38PM 39.0660 -90.8560 95° East 536 617 37,000  Level FlightAware
05:38PM 39.0580 -90.7500 96° East 536 617 37,000  Level FlightAware
05:39PM 39.0500 -90.6470 96° East 536 617 37,000  Level FlightAware
05:39PM 39.0410 -90.5260 95° East 535 616 37,000  Level FlightAware
05:40PM 39.0340 -90.4280 95° East 535 616 37,000  Level FlightAware
05:41PM 39.0220 -90.2710 96° East 536 617 37,000  Level FlightAware
05:41PM 39.0120 -90.1530 96° East 537 618 37,000  Level FlightAware
05:42PM 39.0020 -90.0130 95° East 537 618 37,000  Level FlightAware
05:43PM 39.0000 -89.9810 95° East 537 618 37,000  Level FlightAware
05:43PM 39.0240 -89.8290 78° East 544 626 37,000  Level FlightAware
05:44PM 39.0390 -89.7200 80° East 544 626 37,000  Level FlightAware
05:44PM 39.0560 -89.6060 79° East 545 627 37,000  Level FlightAware
05:45PM 39.0710 -89.4970 80° East 545 627 37,000  Level FlightAware
05:45PM 39.0850 -89.3950 80° East 546 628 37,000  Level FlightAware
05:46PM 39.1010 -89.2810 80° East 547 629 37,000  Level FlightAware
05:46PM 39.1150 -89.1720 81° East 547 629 37,000  Level FlightAware
05:47PM 39.1330 -89.0450 80° East 548 631 37,000  Level FlightAware
05:48PM 39.1470 -88.9380 80° East 547 629 37,000  Level FlightAware
05:48PM 39.1610 -88.8300 80° East 547 629 37,000  Level FlightAware
05:49PM 39.1750 -88.7230 80° East 547 629 37,000  Level FlightAware
05:49PM 39.1920 -88.5950 80° East 547 629 37,000  Level FlightAware
05:50PM 39.2060 -88.4850 81° East 547 629 37,000  Level FlightAware
05:51PM 39.2190 -88.3870 80° East 547 629 37,000  Level FlightAware
05:51PM 39.2360 -88.2550 81° East 548 631 37,000  Level FlightAware
05:52PM 39.2490 -88.1500 81° East 548 631 37,000  Level FlightAware
05:52PM 39.2630 -88.0430 80° East 548 631 37,000  Level FlightAware
05:53PM 39.2780 -87.9200 81° East 549 632 37,000  Level FlightAware
05:54PM 39.2930 -87.8030 81° East 549 632 37,000  Level FlightAware
05:54PM 39.3070 -87.6880 81° East 549 632 37,000  Level FlightAware
05:55PM 39.3200 -87.5820 81° East 550 633 37,000  Level FlightAware
05:55PM 39.3330 -87.4670 82° East 550 633 37,000  Level FlightAware
05:56PM 39.3450 -87.3670 81° East 549 632 37,000  Level FlightAware
05:56PM 39.3600 -87.2410 81° East 549 632 37,000  Level FlightAware
05:57PM 39.3740 -87.1250 81° East 550 633 37,000  Level FlightAware
05:58PM 39.3860 -87.0210 81° East 549 632 37,000  Level FlightAware
05:58PM 39.4000 -86.8990 82° East 549 632 37,000  Level FlightAware
05:59PM 39.4130 -86.7890 81° East 548 631 37,000  Level FlightAware
05:59PM 39.4260 -86.6770 81° East 547 629 37,000  Level FlightAware
06:00PM 39.4390 -86.5590 82° East 547 629 37,000  Level FlightAware
06:00PM 39.4470 -86.5170 76° East 547 629 37,000  Level FlightAware
06:01PM 39.4800 -86.4290 64° Northeast 543 625 37,000  Level FlightAware
06:01PM 39.5180 -86.3340 63° Northeast 543 625 37,000  Level FlightAware
06:02PM 39.5590 -86.2260 64° Northeast 544 626 37,000  Level FlightAware
06:02PM 39.5920 -86.1370 64° Northeast 544 626 37,000  Level FlightAware
06:03PM 39.6340 -86.0300 63° Northeast 543 625 37,000  Level FlightAware
06:04PM 39.6750 -85.9300 62° Northeast 543 625 37,000  Level FlightAware
06:04PM 39.7210 -85.8190 62° Northeast 543 625 37,000  Level FlightAware
06:05PM 39.7600 -85.7240 62° Northeast 543 625 37,000  Level FlightAware
06:05PM 39.7990 -85.6290 62° Northeast 543 625 37,000  Level FlightAware
06:06PM 39.8420 -85.5240 62° Northeast 543 625 37,000  Level FlightAware
06:06PM 39.8820 -85.4250 62° Northeast 543 625 37,000  Level FlightAware
06:07PM 39.9270 -85.3140 62° Northeast 543 625 37,000  Level FlightAware
06:08PM 39.9620 -85.2270 62° Northeast 543 625 37,000  Level FlightAware
06:08PM 40.0050 -85.1200 62° Northeast 534 615 37,000  Level FlightAware
06:09PM 40.0480 -85.0140 62° Northeast 529 609 37,000  Level FlightAware
06:09PM 40.0840 -84.9250 62° Northeast 528 608 37,000  Level FlightAware
06:10PM 40.1230 -84.8260 63° Northeast 527 606 37,000  Level FlightAware
06:11PM 40.1630 -84.7270 62° Northeast 528 608 37,000  Level FlightAware
06:11PM 40.2030 -84.6250 63° Northeast 528 608 37,000  Level FlightAware
06:12PM 40.2390 -84.5350 62° Northeast 528 608 37,000  Level FlightAware
06:12PM 40.2810 -84.4280 63° Northeast 528 608 37,000  Level FlightAware
06:13PM 40.3170 -84.3370 63° Northeast 528 608 37,000  Level FlightAware
06:13PM 40.3670 -84.2420 55° Northeast 519 597 37,000  Level FlightAware
06:14PM 40.4210 -84.1540 51° Northeast 519 597 37,000  Level FlightAware
06:15PM 40.4780 -84.0630 51° Northeast 519 597 37,000  Level FlightAware
06:15PM 40.5270 -83.9850 50° Northeast 520 598 37,000  Level FlightAware
06:16PM 40.5810 -83.8990 50° Northeast 519 597 37,000  Level FlightAware
06:16PM 40.6400 -83.8060 50° Northeast 519 597 37,000  Level FlightAware
06:17PM 40.6920 -83.7240 50° Northeast 519 597 37,000  Level FlightAware
06:18PM 40.7440 -83.6410 50° Northeast 518 596 37,000  Level FlightAware
06:18PM 40.7940 -83.5620 50° Northeast 516 594 37,000  Level FlightAware
06:19PM 40.8530 -83.4690 50° Northeast 514 592 37,000  Level FlightAware
06:19PM 40.9020 -83.3930 50° Northeast 514 592 37,000  Level FlightAware
06:20PM 40.9570 -83.3060 50° Northeast 514 592 37,000  Level FlightAware
06:20PM 41.0100 -83.2230 50° Northeast 513 590 37,000  Level FlightAware
06:21PM 41.0610 -83.1430 50° Northeast 513 590 37,000  Level FlightAware
06:22PM 41.1180 -83.0540 50° Northeast 514 592 37,000  Level FlightAware
06:22PM 41.1660 -82.9790 50° Northeast 514 592 37,000  Level FlightAware
06:23PM 41.2200 -82.8860 52° Northeast 519 597 37,000  Level FlightAware
06:23PM 41.2600 -82.7860 62° Northeast 525 604 37,000  Level FlightAware
06:24PM 41.3010 -82.6420 69° East 528 608 37,000  Level FlightAware
06:25PM 41.3310 -82.5320 70° East 528 608 37,000  Level FlightAware
06:25PM 41.3610 -82.4200 70° East 528 608 37,000  Level FlightAware
06:26PM 41.3910 -82.3060 71° East 528 608 37,000  Level FlightAware
06:27PM 41.4210 -82.1940 70° East 529 609 37,000  Level FlightAware
06:27PM 41.4510 -82.0820 70° East 528 608 37,000  Level FlightAware
06:28PM 41.4820 -81.9640 71° East 527 606 37,000  Level FlightAware
06:28PM 41.5080 -81.8640 71° East 527 606 37,000  Level FlightAware
06:29PM 41.5370 -81.7540 71° East 527 606 37,000  Level FlightAware
06:30PM 41.5670 -81.6390 71° East 525 604 37,000  Level FlightAware
06:30PM 41.5910 -81.5480 71° East 525 604 37,000  Level FlightAware
06:31PM 41.6200 -81.4330 71° East 526 605 37,000  Level FlightAware
06:31PM 41.6490 -81.3210 71° East 525 604 37,000  Level FlightAware
06:32PM 41.6760 -81.2180 71° East 525 604 37,000  Level FlightAware
06:32PM 41.7020 -81.1140 71° East 524 603 37,000  Level FlightAware
06:33PM 41.7290 -81.0070 71° East 524 603 37,000  Level FlightAware
06:34PM 41.7570 -80.8970 71° East 524 603 37,000  Level FlightAware
06:34PM 41.7860 -80.7830 71° East 524 603 37,000  Level FlightAware
06:35PM 41.8250 -80.6810 63° Northeast 521 600 37,000  Level FlightAware
06:35PM 41.8660 -80.5780 62° Northeast 521 600 37,000  Level FlightAware
06:36PM 41.9100 -80.4690 61° Northeast 520 598 37,000  Level FlightAware
06:37PM 41.9470 -80.3750 62° Northeast 522 601 37,000  Level FlightAware
06:37PM 41.9660 -80.2970 72° East 524 603 37,000  Level FlightAware
06:38PM 41.9750 -80.1910 83° East 523 602 37,000  Level FlightAware
06:38PM 41.9720 -80.0990 92° East 521 600 37,000  Level FlightAware
06:39PM 41.9670 -79.9810 93° East 522 601 37,000  Level FlightAware
06:39PM 41.9620 -79.8510 93° East 530 610 37,000  Level FlightAware
06:40PM 41.9570 -79.7360 93° East 533 613 37,000  Level FlightAware
06:41PM 41.9520 -79.6260 93° East 536 617 37,000  Level FlightAware
06:41PM 41.9460 -79.5020 94° East 536 617 37,000  Level FlightAware
06:42PM 41.9410 -79.3930 93° East 537 618 37,000  Level FlightAware
06:42PM 41.9350 -79.2760 94° East 537 618 37,000  Level FlightAware
06:43PM 41.9290 -79.1560 94° East 538 619 37,000  Level FlightAware
06:43PM 41.9240 -79.0390 93° East 538 619 37,000  Level FlightAware
06:44PM 41.9190 -78.9260 93° East 539 620 37,000  Level FlightAware
06:45PM 41.9130 -78.8020 94° East 539 620 37,000  Level FlightAware
06:45PM 41.9090 -78.7010 93° East 538 619 37,000  Level FlightAware
06:46PM 41.9030 -78.5860 94° East 538 619 37,000  Level FlightAware
06:46PM 41.8970 -78.4640 94° East 538 619 37,000  Level FlightAware
06:47PM 41.8910 -78.3380 94° East 536 617 37,000  Level FlightAware
06:48PM 41.8850 -78.2240 94° East 535 616 37,000  Level FlightAware
06:48PM 41.8780 -78.0960 94° East 535 616 37,000  Level FlightAware
06:49PM 41.8720 -77.9790 94° East 535 616 37,000  Level FlightAware
06:49PM 41.8600 -77.8530 97° East 532 612 37,000  Level FlightAware
06:50PM 41.8380 -77.7510 106° East 529 609 37,000  Level FlightAware
06:51PM 41.8110 -77.6430 109° East 528 608 37,000  Level FlightAware
06:51PM 41.7810 -77.5330 110° East 527 606 37,000  Level FlightAware
06:52PM 41.7550 -77.4330 109° East 527 606 37,000  Level FlightAware
06:52PM 41.7230 -77.3160 110° East 527 606 37,000  Level FlightAware
06:53PM 41.6950 -77.2140 110° East 526 605 37,000  Level FlightAware
06:54PM 41.6610 -77.0880 110° East 527 606 37,000  Level FlightAware
06:54PM 41.6310 -76.9770 110° East 526 605 37,000  Level FlightAware
06:55PM 41.6040 -76.8770 110° East 525 604 37,000  Level FlightAware
06:55PM 41.5720 -76.7590 110° East 523 602 37,000  Level FlightAware
06:56PM 41.5470 -76.6660 110° East 523 602 37,000  Level FlightAware
06:57PM 41.5150 -76.5520 111° Southeast 524 603 37,000  Level FlightAware
06:57PM 41.4840 -76.4410 110° East 524 603 37,000  Level FlightAware
06:58PM 41.4570 -76.3410 110° East 524 603 37,000 -720 Level FlightAware
06:58PM 41.4270 -76.2340 110° East 523 602 36,200 -2,220 Descending FlightAware
06:59PM 41.3950 -76.1230 111° Southeast 529 609 34,400 -3,000 Descending FlightAware
06:59PM 41.3640 -76.0120 110° East 530 610 32,600 -3,060 Descending FlightAware
07:00PM 41.3330 -75.9030 111° Southeast 530 610 30,800 -2,760 Descending FlightAware
07:01PM 41.3050 -75.8020 110° East 520 598 29,400 -2,400 Descending FlightAware
07:01PM 41.2730 -75.6940 111° Southeast 507 583 28,000 -2,280 Descending FlightAware
07:02PM 41.2410 -75.5950 113° Southeast 495 570 26,700 -2,160 Descending FlightAware
07:02PM 41.2160 -75.5180 113° Southeast 486 559 25,600 -2,340 Descending FlightAware
07:03PM 41.1790 -75.4080 114° Southeast 476 548 24,100 -2,100 Descending FlightAware
07:04PM 41.1470 -75.3130 114° Southeast 459 528 23,100 -960 Descending FlightAware
07:04PM 41.1190 -75.2300 114° Southeast 427 491 23,000 -120 Descending FlightAware
07:05PM 41.0930 -75.1550 115° Southeast 406 467 23,000 -480 Level FlightAware
07:05PM 41.0690 -75.0830 114° Southeast 402 463 22,500 -1,260 Descending FlightAware
07:06PM 41.0410 -75.0020 115° Southeast 397 457 21,600 -1,140 Descending FlightAware
07:07PM 41.0080 -74.9060 114° Southeast 389 448 21,000 -540 Descending FlightAware
07:07PM 40.9980 -74.8490 103° East 399 459 21,000  Level FlightAware
07:07PM 41.0000 -74.8180 85° East 402 463 21,000  Level FlightAware
07:07PM 41.0050 -74.7930 75° East 401 461 21,000  Level FlightAware
07:08PM 41.0280 -74.7040 71° East 402 463 21,000  Level FlightAware
07:09PM 41.0480 -74.6300 70° East 401 461 21,000  Level FlightAware
07:09PM 41.0700 -74.5500 70° East 400 460 21,000  Level FlightAware
07:10PM 41.0930 -74.4650 70° East 402 463 21,000  Level FlightAware
07:10PM 41.1170 -74.3790 70° East 403 464 21,000  Level FlightAware
07:11PM 41.1390 -74.2990 70° East 403 464 21,000 -420 Level FlightAware
07:12PM 41.1385 -74.1974 90° East 394 453 20,500 -960 Descending FlightAware ADS-B
07:12PM 41.1309 -74.1734 113° Southeast 385 443 20,200 -1,620 Descending FlightAware ADS-B
07:12PM 41.1236 -74.1574 121° Southeast 378 435 20,000 -1,500 Descending FlightAware ADS-B
07:12PM 41.0886 -74.1127 136° Southeast 363 418 19,300 -1,380 Descending FlightAware ADS-B
07:13PM 41.0801 -74.1062 150° Southeast 350 403 19,200 -420 Descending FlightAware ADS-B
07:13PM 41.0213 -74.0879 167° South 325 374 19,000 -240 Descending FlightAware ADS-B
07:13PM 40.9965 -74.0919 187° South 314 361 19,000  Level FlightAware ADS-B
07:14PM 40.9645 -74.1070 200° South 305 351 19,000 -240 Level FlightAware ADS-B
07:14PM 40.9272 -74.1190 194° South 318 366 18,800 -900 Descending FlightAware ADS-B
07:15PM 40.8947 -74.1089 167° South 337 388 18,300 -1,500 Descending FlightAware ADS-B
07:15PM 40.8510 -74.0854 158° South 336 387 17,500 -1,680 Descending FlightAware ADS-B
07:16PM 40.8059 -74.0619 158° South 333 383 16,600 -1,500 Descending FlightAware ADS-B
07:16PM 40.7628 -74.0397 159° South 329 379 16,000 -960 Descending FlightAware ADS-B
07:17PM 40.6884 -74.0012 159° South 328 377 15,300 -1,080 Descending FlightAware ADS-B
07:18PM 40.6460 -73.9790 158° South 323 372 14,500 -1,500 Descending FlightAware
07:18PM 40.6030 -73.9560 158° South 319 367 13,700 -1,440 Descending FlightAware
07:19PM 40.5510 -73.9300 159° South 312 359 12,900 -840 Descending FlightAware
07:19PM 40.5070 -73.9070 158° South 313 360 12,800 -840 Descending FlightAware
07:20PM 40.4610 -73.8850 160° South 306 352 12,000 -1,440 Descending FlightAware
07:20PM 40.4130 -73.8620 160° South 301 346 11,100 -1,500 Descending FlightAware
07:21PM 40.3840 -73.8470 158° South 304 350 10,600 -1,320 Descending FlightAware
07:21PM 40.3680 -73.8270 136° Southeast 311 358 10,300 -1,560 Descending FlightAware
07:21PM 40.3490 -73.8010 134° Southeast 314 361 9,700 -1,560 Descending FlightAware
07:22PM 40.3330 -73.7740 128° Southeast 318 366 9,300 -1,260 Descending FlightAware
07:22PM 40.3300 -73.7660 116° Southeast 319 367 9,200 -1,620 Descending FlightAware
07:22PM 40.3270 -73.7430 100° East 318 366 8,900 -1,380 Descending FlightAware
07:22PM 40.3340 -73.7000 78° East 310 357 8,400 -1,140 Descending FlightAware
07:23PM 40.3400 -73.6850 62° Northeast 302 348 8,300 -1,080 Descending FlightAware
07:23PM 40.3570 -73.6570 51° Northeast 297 342 7,900 -1,140 Descending FlightAware
07:23PM 40.3760 -73.6250 52° Northeast 292 336 7,500 -1,140 Descending FlightAware
07:24PM 40.3910 -73.6060 44° Northeast 285 328 7,200 -1,020 Descending FlightAware
07:24PM 40.4070 -73.5920 34° Northeast 277 319 7,000 -600 Descending FlightAware
07:24PM 40.4260 -73.5770 31° Northeast 271 312 6,900 -240 Descending FlightAware
07:24PM 40.4390 -73.5670 30° Northeast 266 306 6,900  Level FlightAware
07:25PM 40.4660 -73.5470 29° Northeast 268 308 6,900  Level FlightAware
07:25PM 40.4890 -73.5300 29° Northeast 268 308 6,900  Level FlightAware
07:25PM 40.5090 -73.5160 28° Northeast 269 310 6,900 -720 Level FlightAware
07:26PM 40.5340 -73.4970 30° Northeast 265 305 6,400 -1,320 Descending FlightAware
07:26PM 40.5580 -73.4790 30° Northeast 261 300 5,900 -1,320 Descending FlightAware
07:26PM 40.5780 -73.4650 28° Northeast 249 287 5,500 -1,020 Descending FlightAware
07:27PM 40.6000 -73.4480 30° Northeast 241 277 5,200 -840 Descending FlightAware
07:27PM 40.6190 -73.4330 31° Northeast 239 275 4,900 -480 Descending FlightAware
07:27PM 40.6390 -73.4180 30° Northeast 239 275 4,900  Level FlightAware
07:28PM 40.6590 -73.4030 30° Northeast 237 273 4,900  Level FlightAware
07:28PM 40.6820 -73.3860 29° Northeast 237 273 4,900  Level FlightAware
07:29PM 40.6990 -73.3730 30° Northeast 237 273 4,900  Level FlightAware
07:29PM 40.7070 -73.3690 21° North 231 266 4,900 -480 Level FlightAware
07:29PM 40.7140 -73.3680 North 226 260 4,800 -1,080 Descending FlightAware
07:29PM 40.7340 -73.3790 337° Northwest 215 247 4,400 -1,200 Descending FlightAware
07:29PM 40.7390 -73.3880 306° West 214 246 4,200 -1,200 Descending FlightAware
07:30PM 40.7510 -73.4080 308° West 204 235 3,800 -720 Descending FlightAware
07:30PM 40.7630 -73.4270 310° West 196 226 3,700 -480 Descending FlightAware
07:30PM 40.7730 -73.4450 306° West 184 212 3,500 -660 Descending FlightAware
07:31PM 40.7830 -73.4610 310° West 181 208 3,300 -660 Descending FlightAware
07:31PM 40.7930 -73.4780 308° West 170 196 3,100 -600 Descending FlightAware
07:31PM 40.8050 -73.4970 310° West 161 185 2,900 -360 Descending FlightAware
07:32PM 40.8120 -73.5090 308° West 164 189 2,900  Level FlightAware
07:32PM 40.8210 -73.5240 308° West 162 186 2,900  Level FlightAware
07:32PM 40.8310 -73.5410 308° West 161 185 2,900  Level FlightAware
07:33PM 40.8380 -73.5540 305° West 163 188 2,900  Level FlightAware
07:33PM 40.8390 -73.5570 294° West 162 186 2,900 -540 Level FlightAware
07:33PM 40.8410 -73.5650 288° West 160 184 2,800 -900 Descending FlightAware
07:33PM 40.8360 -73.5960 258° West 164 189 2,300 -840 Descending FlightAware
07:33PM 40.8310 -73.6040 230° Southwest 168 193 2,200 -840 Descending FlightAware
07:34PM 40.8240 -73.6130 224° Southwest 169 194 2,000 -600 Descending FlightAware
07:34PM 40.8100 -73.6270 217° Southwest 178 205 1,900 -180 Descending FlightAware
07:34PM 40.7960 -73.6380 211° Southwest 178 205 1,900  Level FlightAware
07:35PM 40.7790 -73.6500 208° Southwest 178 205 1,900  Level FlightAware
07:35PM 40.7650 -73.6610 211° Southwest 177 204 1,900  Level FlightAware
07:36PM 40.7440 -73.6770 210° Southwest 171 197 1,900 -120 Level FlightAware
07:36PM 40.7280 -73.6900 212° Southwest 163 188 1,800 -540 Descending FlightAware
07:36PM 40.7140 -73.7010 211° Southwest 152 175 1,500 -780 Descending FlightAware
07:37PM 40.7020 -73.7100 210° Southwest 136 157 1,300 -780 Descending FlightAware
07:37PM 40.6920 -73.7190 214° Southwest 140 161 1,000 -900 Descending FlightAware
07:37PM 40.6790 -73.7290 210° Southwest 142 163 700 -840 Descending FlightAware
07:38PM 40.6660 -73.7390 210° Southwest 139 160 400 -720 Descending FlightAware
07:38PM 40.6550 -73.7470 209° Southwest 136 157 200 -600 Descending FlightAware
07:38PM 40.6440 -73.7560 212° Southwest 134 154 -600 Descending FlightAware
07:39PM 40.6350 -73.7630 211° Southwest 74 85  Level FlightAware